Time;durP1;ratioP1;P1;durP2;ratioP2;P2;SDS_P1;SDS_P2;PMS_P1;PMS_P2;Temp;Humidity;BMP_temperature;BMP_pressure;BME280_temperature;BME280_humidity;BME280_pressure;Samples;Min_cycle;Max_cycle;Signal;HPM_P1;HPM_P2
2021/06/05 03:58:38;;;;;;;12.03;11.53;;;18.70;99.90;;;;;;5245933;23;20500;-76
2021/06/05 04:01:05;;;;;;;12.23;11.73;;;18.60;99.90;;;;;;4946158;29;20560;-75
2021/06/05 04:03:31;;;;;;;12.87;12.30;;;18.80;99.90;;;;;;4951122;29;20441;-75
2021/06/05 04:05:57;;;;;;;12.97;12.27;;;18.70;99.90;;;;;;4950979;29;21013;-75
2021/06/05 04:08:23;;;;;;;12.17;11.67;;;18.70;99.90;;;;;;4952099;29;20475;-76
2021/06/05 04:10:49;;;;;;;13.80;12.90;;;18.80;99.90;;;;;;4951987;29;20493;-75
2021/06/05 04:13:16;;;;;;;12.97;12.47;;;18.80;99.90;;;;;;4951233;29;20455;-75
2021/06/05 04:15:43;;;;;;;12.97;12.20;;;18.80;99.90;;;;;;4950937;29;20445;-75
2021/06/05 04:18:13;;;;;;;12.97;12.30;;;18.90;99.90;;;;;;4951205;29;20452;-75
2021/06/05 04:20:41;;;;;;;12.23;11.60;;;19.00;99.90;;;;;;4950918;29;20500;-76
2021/06/05 04:23:10;;;;;;;12.50;12.00;;;19.00;99.90;;;;;;4950615;29;20456;-76
2021/06/05 04:25:36;;;;;;;13.60;12.37;;;19.40;99.90;;;;;;4950692;29;20481;-75
2021/06/05 04:28:02;;;;;;;12.60;12.10;;;19.80;99.90;;;;;;4950720;29;20457;-75
2021/06/05 04:30:31;;;;;;;12.50;11.90;;;20.10;99.90;;;;;;4955046;29;20479;-75
2021/06/05 04:32:59;;;;;;;12.00;11.60;;;19.80;99.90;;;;;;4955368;29;20485;-75
2021/06/05 04:35:25;;;;;;;13.63;12.83;;;19.50;99.90;;;;;;4954728;29;20444;-75
2021/06/05 04:37:52;;;;;;;13.47;12.70;;;19.30;99.90;;;;;;4954049;29;20500;-75
2021/06/05 04:40:20;;;;;;;13.43;12.70;;;19.10;99.90;;;;;;4954484;29;20449;-74
2021/06/05 04:42:47;;;;;;;12.23;11.63;;;19.10;99.90;;;;;;4954395;29;20453;-76
2021/06/05 04:45:13;;;;;;;12.03;11.63;;;18.90;99.90;;;;;;4951837;29;20976;-74
2021/06/05 04:47:39;;;;;;;13.00;12.33;;;18.90;99.90;;;;;;4954238;29;20448;-77
2021/06/05 04:50:10;;;;;;;12.70;12.10;;;18.90;99.90;;;;;;4954292;29;20492;-75
2021/06/05 04:52:36;;;;;;;13.07;12.47;;;18.80;99.90;;;;;;4952073;29;20449;-75
2021/06/05 04:55:04;;;;;;;14.17;13.37;;;18.80;99.90;;;;;;4954104;29;20457;-78
2021/06/05 04:57:30;;;;;;;13.43;12.60;;;18.80;99.90;;;;;;4953694;28;20484;-75
2021/06/05 04:59:56;;;;;;;13.03;12.43;;;18.90;99.90;;;;;;4954108;29;20816;-75
2021/06/05 05:02:22;;;;;;;12.57;12.07;;;18.90;99.90;;;;;;4955098;28;20732;-75
2021/06/05 05:04:49;;;;;;;11.97;11.17;;;18.80;99.90;;;;;;4954773;28;20814;-75
2021/06/05 05:07:17;;;;;;;13.03;12.33;;;18.80;99.90;;;;;;4955193;29;20456;-75
2021/06/05 05:09:43;;;;;;;13.70;12.80;;;18.90;99.90;;;;;;4954936;28;20487;-76
2021/06/05 05:12:10;;;;;;;13.27;12.57;;;18.90;99.90;;;;;;4955055;29;20464;-75
2021/06/05 05:14:37;;;;;;;12.80;12.20;;;18.90;99.90;;;;;;4954572;29;20447;-75
2021/06/05 05:17:04;;;;;;;12.70;12.13;;;18.80;99.90;;;;;;4955025;29;20460;-76
2021/06/05 05:19:31;;;;;;;13.23;12.63;;;18.90;99.90;;;;;;4955152;29;20448;-76
2021/06/05 05:21:57;;;;;;;13.37;12.87;;;18.80;99.90;;;;;;4954641;29;21009;-77
2021/06/05 05:24:25;;;;;;;13.40;12.80;;;18.80;99.90;;;;;;4954801;29;20484;-76
2021/06/05 05:26:52;;;;;;;13.10;12.50;;;18.80;99.90;;;;;;4954829;29;20455;-76
2021/06/05 05:29:18;;;;;;;12.30;11.87;;;18.80;99.90;;;;;;4954367;29;20484;-76
2021/06/05 05:31:45;;;;;;;12.77;12.27;;;18.70;99.90;;;;;;4954669;29;20456;-75
2021/06/05 05:34:11;;;;;;;13.17;12.47;;;18.80;99.90;;;;;;4954499;29;20788;-76
2021/06/05 05:36:39;;;;;;;13.40;12.60;;;18.70;99.90;;;;;;4954935;29;20890;-75
2021/06/05 05:39:07;;;;;;;12.80;12.30;;;18.60;99.90;;;;;;4954112;29;20461;-75
2021/06/05 05:41:35;;;;;;;12.83;12.23;;;18.70;99.90;;;;;;4953298;28;20453;-75
2021/06/05 05:44:01;;;;;;;12.23;11.73;;;18.80;99.90;;;;;;4954192;29;20503;-75
2021/06/05 05:46:28;;;;;;;13.30;12.60;;;18.90;99.90;;;;;;4954621;29;20455;-76
2021/06/05 05:48:54;;;;;;;13.33;12.43;;;19.10;99.90;;;;;;4954793;29;20531;-77
2021/06/05 05:51:22;;;;;;;13.03;12.50;;;19.10;99.90;;;;;;4954319;28;20822;-77
2021/06/05 05:53:48;;;;;;;14.10;13.20;;;19.20;99.90;;;;;;4953819;29;20460;-78
2021/06/05 05:56:17;;;;;;;13.50;12.80;;;19.30;99.90;;;;;;4954391;29;20473;-78
2021/06/05 05:58:50;;;;;;;13.30;12.57;;;19.40;99.90;;;;;;4953940;28;20821;-76
2021/06/05 06:01:19;;;;;;;14.60;13.70;;;19.50;99.90;;;;;;4954525;29;20826;-78
2021/06/05 06:03:46;;;;;;;15.87;14.90;;;19.60;99.90;;;;;;4951738;28;21006;-75
2021/06/05 06:06:13;;;;;;;14.77;13.80;;;19.60;99.90;;;;;;4954237;29;20445;-75
2021/06/05 06:08:40;;;;;;;15.00;14.10;;;19.70;99.90;;;;;;4953796;28;20478;-75
2021/06/05 06:11:09;;;;;;;15.23;14.43;;;19.80;99.90;;;;;;4954065;29;20707;-75
2021/06/05 06:13:35;;;;;;;15.67;14.50;;;20.00;99.90;;;;;;4954035;28;20453;-76
2021/06/05 06:16:04;;;;;;;13.00;12.30;;;20.10;99.90;;;;;;4953699;29;20468;-75
2021/06/05 06:18:31;;;;;;;12.67;11.57;;;20.50;99.90;;;;;;4954028;28;20444;-75
2021/06/05 06:20:58;;;;;;;12.17;11.67;;;20.70;99.90;;;;;;4954291;29;20449;-75
2021/06/05 06:23:26;;;;;;;11.80;11.30;;;20.90;99.90;;;;;;4953762;29;20457;-75
2021/06/05 06:25:54;;;;;;;12.20;11.60;;;21.30;99.90;;;;;;4953824;29;20456;-74
2021/06/05 06:28:22;;;;;;;10.80;10.40;;;21.50;99.90;;;;;;4953525;29;20456;-74
2021/06/05 06:30:49;;;;;;;11.70;11.20;;;21.90;99.90;;;;;;4953502;29;20487;-77
2021/06/05 06:33:17;;;;;;;11.87;11.27;;;22.70;99.90;;;;;;4953772;29;20951;-75
2021/06/05 06:35:43;;;;;;;12.03;11.43;;;23.10;99.90;;;;;;4953516;28;20444;-75
2021/06/05 06:38:12;;;;;;;10.70;10.30;;;23.30;99.90;;;;;;4953095;29;20843;-75
2021/06/05 06:40:39;;;;;;;12.43;11.70;;;23.50;99.90;;;;;;4953146;28;20448;-74
2021/06/05 06:43:07;;;;;;;11.27;10.77;;;23.10;99.90;;;;;;4951492;28;20969;-75
2021/06/05 06:45:34;;;;;;;11.17;10.77;;;23.00;99.90;;;;;;4953193;29;20452;-76
2021/06/05 06:48:00;;;;;;;11.80;11.40;;;23.00;99.90;;;;;;4953477;29;20456;-76
2021/06/05 06:50:29;;;;;;;11.47;10.97;;;23.10;99.90;;;;;;4953047;28;20496;-75
2021/06/05 06:52:56;;;;;;;11.50;11.10;;;23.20;99.90;;;;;;4953168;28;20460;-76
2021/06/05 06:55:31;;;;;;;12.10;11.60;;;23.20;99.90;;;;;;4953371;29;20648;-75
2021/06/05 06:57:59;;;;;;;12.43;11.93;;;23.10;99.90;;;;;;4952614;29;20508;-76
2021/06/05 07:00:29;;;;;;;12.23;11.67;;;23.50;99.90;;;;;;4952915;29;20461;-76
2021/06/05 07:02:55;;;;;;;12.47;11.97;;;24.30;99.90;;;;;;4952952;29;20468;-75
2021/06/05 07:05:21;;;;;;;12.13;11.73;;;24.30;99.90;;;;;;4952919;28;20457;-76
2021/06/05 07:07:49;;;;;;;11.90;11.30;;;24.10;99.90;;;;;;4952878;28;20461;-75
2021/06/05 07:10:18;;;;;;;12.33;11.83;;;24.30;99.90;;;;;;4952994;29;20543;-75
2021/06/05 07:12:44;;;;;;;12.30;11.90;;;24.50;99.90;;;;;;4953059;28;20460;-76
2021/06/05 07:15:12;;;;;;;12.07;11.50;;;24.60;99.90;;;;;;4952804;29;20464;-76
2021/06/05 07:17:38;;;;;;;12.63;12.07;;;24.70;99.90;;;;;;4953013;28;20463;-76
2021/06/05 07:20:06;;;;;;;12.30;11.73;;;25.10;99.90;;;;;;4952829;29;20954;-76
2021/06/05 07:22:32;;;;;;;12.67;12.10;;;25.50;99.90;;;;;;4952982;28;20459;-75
2021/06/05 07:24:59;;;;;;;12.63;12.23;;;25.90;99.50;;;;;;4952654;29;20468;-75
2021/06/05 07:27:26;;;;;;;12.00;11.60;;;26.20;99.10;;;;;;4952934;29;20464;-75
2021/06/05 07:29:52;;;;;;;12.53;11.80;;;26.20;98.70;;;;;;4952700;29;20867;-75
2021/06/05 07:32:18;;;;;;;12.17;11.60;;;25.80;99.10;;;;;;4952772;28;20449;-75
2021/06/05 07:34:44;;;;;;;12.67;12.03;;;25.60;99.90;;;;;;4952744;29;20519;-75
2021/06/05 07:37:13;;;;;;;12.37;11.80;;;25.10;99.90;;;;;;4952487;29;20508;-75
2021/06/05 07:39:39;;;;;;;12.50;12.00;;;24.80;99.90;;;;;;4952690;29;20923;-75
2021/06/05 07:42:09;;;;;;;13.20;12.70;;;25.00;99.90;;;;;;4952624;29;20455;-75
2021/06/05 07:44:35;;;;;;;12.40;12.00;;;25.40;99.90;;;;;;4952594;28;20457;-75
2021/06/05 07:47:03;;;;;;;11.80;11.30;;;25.40;99.90;;;;;;4952646;29;20456;-75
2021/06/05 07:49:32;;;;;;;11.70;11.20;;;25.50;99.90;;;;;;4952661;29;20499;-75
2021/06/05 07:51:59;;;;;;;11.70;11.27;;;25.10;99.90;;;;;;4952758;29;20511;-75
2021/06/05 07:54:25;;;;;;;11.97;11.50;;;25.50;99.90;;;;;;4952528;28;20503;-74
2021/06/05 07:56:51;;;;;;;12.87;12.17;;;25.60;99.90;;;;;;4952164;28;20495;-74
2021/06/05 07:59:23;;;;;;;11.77;11.27;;;25.60;99.90;;;;;;4952394;29;20449;-75
2021/06/05 08:01:49;;;;;;;11.50;11.00;;;25.40;99.90;;;;;;4952399;29;20452;-74
2021/06/05 08:04:17;;;;;;;11.57;11.07;;;25.10;99.90;;;;;;4953811;28;20802;-74
2021/06/05 08:06:44;;;;;;;12.53;12.03;;;25.10;99.90;;;;;;4956427;28;20464;-75
2021/06/05 08:09:10;;;;;;;11.77;11.37;;;25.20;99.90;;;;;;4956162;28;20538;-76
2021/06/05 08:11:37;;;;;;;12.00;11.50;;;25.30;99.90;;;;;;4956113;28;20452;-75
2021/06/05 08:14:04;;;;;;;11.70;11.20;;;25.50;99.90;;;;;;4956217;29;20464;-75
2021/06/05 08:16:36;;;;;;;11.10;10.70;;;25.30;99.90;;;;;;4956332;29;20811;-75
2021/06/05 08:19:02;;;;;;;11.53;11.13;;;25.40;99.90;;;;;;4956135;29;20476;-74
2021/06/05 08:21:28;;;;;;;12.67;11.77;;;25.60;99.90;;;;;;4956172;29;20461;-75
2021/06/05 08:23:54;;;;;;;11.60;11.20;;;25.40;99.90;;;;;;4956019;28;20866;-75
2021/06/05 08:26:21;;;;;;;12.10;11.60;;;24.90;99.90;;;;;;4956035;28;20459;-75
2021/06/05 08:28:47;;;;;;;12.57;11.87;;;24.90;99.90;;;;;;4956021;28;20448;-75
2021/06/05 08:31:16;;;;;;;12.63;11.80;;;24.50;99.90;;;;;;4956291;28;20551;-75
2021/06/05 08:33:44;;;;;;;12.33;11.67;;;24.30;99.90;;;;;;4955945;29;20797;-75
2021/06/05 08:36:12;;;;;;;11.53;11.10;;;24.50;99.90;;;;;;4955850;29;20460;-76
2021/06/05 08:38:39;;;;;;;12.10;11.50;;;24.20;99.90;;;;;;4955856;28;20483;-75
2021/06/05 08:41:16;;;;;;;12.07;11.43;;;24.00;99.90;;;;;;4955626;29;20495;-74
2021/06/05 08:43:45;;;;;;;11.90;11.40;;;23.60;99.90;;;;;;4955978;29;20456;-74
2021/06/05 08:46:14;;;;;;;12.20;11.70;;;23.10;99.90;;;;;;4955857;28;20824;-74
2021/06/05 08:48:40;;;;;;;12.83;11.73;;;22.90;99.90;;;;;;4955625;28;20456;-75
2021/06/05 08:51:22;;;;;;;12.63;11.80;;;22.80;99.90;;;;;;4955534;29;20464;-74
2021/06/05 08:53:50;;;;;;;11.23;10.83;;;22.90;99.90;;;;;;4953459;29;20493;-74
2021/06/05 08:56:21;;;;;;;11.90;11.50;;;23.00;99.90;;;;;;4960123;28;20464;-74
2021/06/05 08:58:51;;;;;;;11.10;10.70;;;23.30;99.90;;;;;;4959908;28;20484;-74
2021/06/05 09:01:21;;;;;;;11.93;11.43;;;23.60;99.90;;;;;;4960635;28;20448;-75
2021/06/05 09:03:53;;;;;;;11.20;10.70;;;23.90;99.90;;;;;;4955729;28;20460;-74
2021/06/05 09:06:23;;;;;;;12.50;11.90;;;24.00;99.90;;;;;;4955470;29;20472;-75
2021/06/05 09:08:50;;;;;;;11.17;10.67;;;24.00;99.90;;;;;;4955249;28;20453;-74
2021/06/05 09:11:18;;;;;;;11.60;11.20;;;24.30;99.90;;;;;;4955402;29;20459;-74
2021/06/05 09:13:45;;;;;;;11.30;10.90;;;24.50;99.90;;;;;;4955449;29;20460;-74
2021/06/05 09:16:27;;;;;;;11.97;11.57;;;24.50;99.90;;;;;;4955160;28;20460;-74
2021/06/05 09:18:55;;;;;;;12.23;11.67;;;24.30;99.90;;;;;;4955254;28;20456;-74
2021/06/05 09:21:29;;;;;;;11.63;11.23;;;24.40;99.90;;;;;;4955218;29;20523;-74
2021/06/05 09:24:12;;;;;;;12.10;11.60;;;24.80;99.90;;;;;;4955236;29;20958;-75
2021/06/05 09:26:39;;;;;;;12.80;12.30;;;24.90;99.90;;;;;;4954981;29;20467;-74
2021/06/05 09:29:11;;;;;;;12.37;11.87;;;25.00;99.90;;;;;;4955089;28;20503;-73
2021/06/05 09:31:54;;;;;;;12.30;11.80;;;25.00;99.90;;;;;;4955156;29;20965;-75
2021/06/05 09:34:22;;;;;;;11.80;11.40;;;25.00;99.90;;;;;;4954969;29;20946;-74
2021/06/05 09:36:49;;;;;;;11.63;11.23;;;24.80;99.90;;;;;;4955161;29;20493;-73
2021/06/05 09:39:35;;;;;;;11.77;11.37;;;24.90;99.90;;;;;;4955134;29;20885;-73
2021/06/05 09:42:01;;;;;;;12.03;11.50;;;24.50;99.90;;;;;;4954901;29;20452;-74
2021/06/05 09:44:29;;;;;;;12.50;11.90;;;24.40;99.90;;;;;;4954880;29;20875;-74
2021/06/05 09:47:00;;;;;;;11.20;10.60;;;24.00;99.90;;;;;;4954996;28;20456;-75
2021/06/05 09:49:31;;;;;;;12.43;11.80;;;23.80;99.90;;;;;;4954928;29;20583;-74
2021/06/05 09:52:09;;;;;;;11.33;10.83;;;23.70;99.90;;;;;;4954846;29;20467;-74
2021/06/05 09:54:39;;;;;;;11.70;11.20;;;23.50;99.90;;;;;;4954479;29;20456;-73
2021/06/05 09:57:25;;;;;;;12.30;11.67;;;23.40;99.90;;;;;;4953987;28;20484;-74
2021/06/05 10:00:10;;;;;;;11.43;10.90;;;23.30;99.90;;;;;;4954195;29;20448;-73
2021/06/05 10:02:38;;;;;;;11.10;10.60;;;23.50;99.90;;;;;;4954395;29;20448;-74
2021/06/05 10:05:23;;;;;;;11.40;10.90;;;23.40;99.90;;;;;;4954464;28;20456;-74
2021/06/05 10:07:51;;;;;;;11.57;10.87;;;23.30;99.90;;;;;;4954328;29;20532;-73
2021/06/05 10:10:31;;;;;;;12.10;11.70;;;23.60;99.90;;;;;;4954010;28;20476;-73
2021/06/05 10:12:59;;;;;;;11.80;11.30;;;23.70;99.90;;;;;;4954061;29;20460;-73
2021/06/05 10:15:34;;;;;;;12.70;12.03;;;23.80;99.90;;;;;;4954029;29;20520;-74
2021/06/05 10:18:06;;;;;;;11.53;11.10;;;24.00;99.90;;;;;;4954274;29;20448;-74
2021/06/05 10:20:45;;;;;;;12.93;12.40;;;24.30;99.90;;;;;;4954153;29;20476;-74
2021/06/05 10:23:17;;;;;;;12.03;11.43;;;24.50;99.90;;;;;;4954096;29;20539;-73
2021/06/05 10:25:47;;;;;;;11.73;11.30;;;24.70;99.90;;;;;;4954088;29;20794;-74
2021/06/05 10:28:18;;;;;;;11.90;11.40;;;25.10;99.90;;;;;;4953554;28;20547;-74
2021/06/05 10:30:50;;;;;;;11.77;11.27;;;25.70;99.90;;;;;;4953963;29;20495;-74
2021/06/05 10:33:35;;;;;;;12.13;11.70;;;25.60;99.90;;;;;;4953866;29;20511;-73
2021/06/05 10:36:04;;;;;;;12.20;11.53;;;25.70;99.90;;;;;;4953926;29;20479;-74
2021/06/05 10:38:40;;;;;;;12.13;11.60;;;25.80;99.90;;;;;;4953965;28;20460;-74
2021/06/05 10:41:11;;;;;;;12.40;12.00;;;26.20;99.90;;;;;;4953648;29;20504;-74
2021/06/05 10:43:38;;;;;;;12.20;11.70;;;26.10;99.90;;;;;;4953937;29;20457;-74
2021/06/05 10:46:15;;;;;;;12.33;11.80;;;25.80;99.90;;;;;;4953562;28;20468;-73
2021/06/05 10:48:44;;;;;;;12.87;12.27;;;26.00;99.90;;;;;;4953646;29;20459;-74
2021/06/05 10:51:16;;;;;;;11.13;10.73;;;26.40;99.90;;;;;;4953330;28;21018;-73
2021/06/05 10:53:59;;;;;;;12.47;12.07;;;26.90;99.90;;;;;;4953489;29;20480;-73
2021/06/05 10:56:34;;;;;;;12.83;12.43;;;27.40;99.90;;;;;;4953200;29;20892;-73
2021/06/05 10:59:00;;;;;;;12.27;11.70;;;27.50;99.90;;;;;;4953180;29;20526;-74
2021/06/05 11:01:47;;;;;;;12.40;12.00;;;27.50;99.90;;;;;;4953117;29;20994;-73
2021/06/05 11:04:38;;;;;;;13.50;13.00;;;27.50;99.80;;;;;;4953588;28;20803;-74
2021/06/05 11:07:28;;;;;;;13.80;13.20;;;27.90;99.90;;;;;;4942909;29;20479;-74
2021/06/05 11:09:58;;;;;;;13.60;13.00;;;27.40;99.90;;;;;;4953293;29;20496;-72
2021/06/05 11:12:50;;;;;;;13.83;13.33;;;26.80;99.90;;;;;;4953124;28;20955;-74
2021/06/05 11:15:49;;;;;;;13.93;13.40;;;26.20;99.90;;;;;;4953168;28;20483;-73
2021/06/05 11:18:34;;;;;;;12.43;12.03;;;25.40;99.90;;;;;;4953319;29;20821;-72
2021/06/05 11:21:38;;;;;;;13.30;12.60;;;24.90;99.90;;;;;;4953096;29;20449;-73
2021/06/05 11:24:22;;;;;;;13.93;13.27;;;24.80;99.90;;;;;;4952962;29;20798;-73
2021/06/05 11:26:52;;;;;;;13.47;12.90;;;25.00;99.90;;;;;;4952625;29;20449;-73
2021/06/05 11:29:54;;;;;;;13.30;12.70;;;25.00;99.90;;;;;;4952637;28;20496;-74
2021/06/05 11:32:59;;;;;;;12.50;12.10;;;25.10;99.90;;;;;;4952701;28;20456;-74
2021/06/05 11:35:42;;;;;;;12.57;11.90;;;25.30;99.90;;;;;;4951058;29;20460;-73
2021/06/05 11:38:11;;;;;;;12.30;11.90;;;25.90;99.90;;;;;;4950572;28;20468;-73
2021/06/05 11:41:03;;;;;;;12.57;12.07;;;26.70;99.90;;;;;;4952280;29;20480;-73
2021/06/05 11:43:44;;;;;;;12.37;11.77;;;27.50;99.90;;;;;;4952734;29;20862;-74
2021/06/05 11:46:31;;;;;;;12.97;12.40;;;28.10;99.90;;;;;;4952514;29;20482;-74
2021/06/05 11:49:00;;;;;;;11.57;11.17;;;28.40;98.50;;;;;;4952475;29;20457;-75
2021/06/05 11:51:39;;;;;;;12.00;11.40;;;29.50;97.60;;;;;;4952428;29;21021;-74
2021/06/05 11:54:22;;;;;;;11.90;11.40;;;30.00;95.50;;;;;;4952487;29;20804;-73
2021/06/05 11:56:53;;;;;;;12.40;11.90;;;30.10;94.70;;;;;;4952303;29;20994;-74
2021/06/05 11:59:28;;;;;;;12.20;11.60;;;30.30;94.60;;;;;;4914221;29;20455;-75
2021/06/05 12:02:08;;;;;;;11.80;11.40;;;30.90;92.40;;;;;;4914152;29;20454;-74
2021/06/05 12:04:41;;;;;;;12.13;11.67;;;30.30;92.10;;;;;;4914379;29;20451;-74
2021/06/05 12:07:21;;;;;;;12.90;12.30;;;29.70;92.20;;;;;;4914393;29;20446;-74
2021/06/05 12:09:49;;;;;;;11.17;10.80;;;29.70;92.00;;;;;;4914321;29;20500;-74
2021/06/05 12:12:16;;;;;;;11.20;10.80;;;29.70;92.50;;;;;;4914404;29;20949;-74
2021/06/05 12:14:47;;;;;;;11.63;11.23;;;29.60;92.50;;;;;;4913496;29;20458;-74
2021/06/05 12:17:30;;;;;;;12.50;11.93;;;29.70;92.00;;;;;;4913204;29;20609;-74
2021/06/05 12:20:05;;;;;;;11.80;11.40;;;29.80;91.50;;;;;;4912044;29;20458;-74
2021/06/05 12:22:32;;;;;;;11.97;11.10;;;30.00;90.60;;;;;;4911663;29;21011;-74
2021/06/05 12:24:59;;;;;;;11.70;11.30;;;29.90;91.10;;;;;;4912960;29;20447;-73
2021/06/05 12:27:31;;;;;;;12.17;11.77;;;29.50;92.10;;;;;;4912769;29;20454;-74
2021/06/05 12:30:11;;;;;;;12.23;11.83;;;29.40;91.50;;;;;;4912792;29;20878;-73
2021/06/05 12:32:40;;;;;;;25.33;24.07;;;28.70;92.70;;;;;;4911910;29;20483;-70
2021/06/05 12:35:21;;;;;;;35.93;34.03;;;28.10;99.90;;;;;;4912683;29;20521;-71
2021/06/05 12:37:53;;;;;;;34.33;32.63;;;26.80;99.90;;;;;;4910559;29;20732;-71
2021/06/05 12:40:28;;;;;;;37.20;35.40;;;26.00;99.90;;;;;;4912350;29;20528;-71
2021/06/05 12:42:55;;;;;;;36.20;34.70;;;24.80;99.90;;;;;;4912350;29;20944;-71
2021/06/05 12:45:25;;;;;;;31.23;29.93;;;24.00;99.90;;;;;;4912465;29;20895;-71
2021/06/05 12:47:55;;;;;;;26.43;25.03;;;23.90;99.90;;;;;;4912261;29;20451;-71
2021/06/05 12:50:23;;;;;;;18.07;17.37;;;24.20;99.90;;;;;;4913462;29;20490;-72
2021/06/05 12:52:51;;;;;;;17.60;16.80;;;24.60;99.90;;;;;;4915666;29;20461;-71
2021/06/05 12:55:33;;;;;;;16.60;16.00;;;25.30;99.90;;;;;;4915984;29;20449;-72
2021/06/05 12:58:00;;;;;;;16.23;15.50;;;26.10;99.90;;;;;;4932980;28;20491;-72
2021/06/05 13:00:42;;;;;;;16.60;15.90;;;26.40;99.90;;;;;;4955231;29;20441;-71
2021/06/05 13:03:38;;;;;;;15.50;14.90;;;26.60;99.90;;;;;;4955166;29;20456;-71
2021/06/05 13:06:15;;;;;;;15.57;14.90;;;27.30;99.90;;;;;;4955137;29;20545;-71
2021/06/05 13:08:43;;;;;;;15.87;15.23;;;27.80;99.90;;;;;;4955125;29;20962;-71
2021/06/05 13:11:11;;;;;;;15.50;14.90;;;27.80;99.90;;;;;;4954911;29;20500;-71
2021/06/05 13:13:39;;;;;;;15.33;14.77;;;28.20;99.90;;;;;;4954994;29;20466;-72
2021/06/05 13:16:23;;;;;;;14.70;14.20;;;28.60;98.00;;;;;;4955058;29;20455;-73
2021/06/05 13:18:50;;;;;;;15.43;14.83;;;29.30;99.50;;;;;;4954937;28;20852;-71
2021/06/05 13:21:20;;;;;;;14.80;14.30;;;30.30;99.90;;;;;;4954948;29;20445;-73
2021/06/05 13:23:48;;;;;;;12.90;12.50;;;29.70;98.70;;;;;;4954917;28;20950;-72
2021/06/05 13:26:24;;;;;;;13.47;13.07;;;29.80;95.40;;;;;;4954939;28;20460;-73
2021/06/05 13:28:50;;;;;;;12.30;11.90;;;29.60;95.70;;;;;;4954802;29;20459;-73
2021/06/05 13:31:41;;;;;;;12.87;12.47;;;29.00;95.30;;;;;;4954705;29;20503;-73
2021/06/05 13:34:17;;;;;;;12.50;12.10;;;28.60;95.00;;;;;;4954924;29;20456;-73
2021/06/05 13:36:43;;;;;;;13.10;12.70;;;28.10;95.40;;;;;;4954834;29;20456;-74
2021/06/05 13:39:12;;;;;;;12.60;12.20;;;28.20;95.40;;;;;;4954711;28;20445;-74
2021/06/05 13:41:39;;;;;;;12.40;12.00;;;28.50;95.10;;;;;;4954449;28;20528;-74
2021/06/05 13:44:06;;;;;;;12.30;11.97;;;28.80;94.80;;;;;;4954410;29;20460;-74
2021/06/05 13:46:33;;;;;;;12.50;12.10;;;28.80;94.60;;;;;;4954584;29;20445;-74
2021/06/05 13:49:01;;;;;;;12.50;12.10;;;28.40;95.90;;;;;;4954714;29;20476;-74
2021/06/05 13:51:29;;;;;;;11.60;11.30;;;28.60;95.20;;;;;;4954492;28;20495;-73
2021/06/05 13:53:55;;;;;;;10.73;10.43;;;28.10;94.70;;;;;;4954446;28;20452;-73
2021/06/05 13:56:24;;;;;;;10.83;10.43;;;27.60;96.70;;;;;;4954496;29;20483;-73
2021/06/05 13:58:51;;;;;;;11.97;11.57;;;28.20;95.40;;;;;;4954118;28;20495;-73
2021/06/05 14:01:21;;;;;;;11.93;11.53;;;28.50;95.00;;;;;;4953780;28;20444;-73
2021/06/05 14:03:48;;;;;;;12.10;11.50;;;28.40;94.40;;;;;;4954227;28;20461;-72
2021/06/05 14:06:15;;;;;;;11.40;11.10;;;28.00;95.80;;;;;;4954662;28;20464;-72
2021/06/05 14:08:42;;;;;;;11.10;10.80;;;27.90;94.90;;;;;;4954256;28;20464;-73
2021/06/05 14:11:09;;;;;;;11.07;10.67;;;28.00;94.40;;;;;;4953976;28;21212;-73
2021/06/05 14:13:35;;;;;;;10.90;10.60;;;28.10;94.10;;;;;;4954183;29;20449;-74
2021/06/05 14:16:02;;;;;;;11.30;10.90;;;27.90;95.10;;;;;;4954242;28;20943;-73
2021/06/05 14:18:31;;;;;;;11.10;10.73;;;28.00;95.50;;;;;;4954353;28;20492;-74
2021/06/05 14:20:59;;;;;;;11.27;10.87;;;28.30;94.60;;;;;;4953314;29;20448;-74
2021/06/05 14:23:28;;;;;;;10.90;10.60;;;28.00;95.60;;;;;;4952598;28;20444;-73
2021/06/05 14:25:55;;;;;;;10.80;10.50;;;27.90;94.80;;;;;;4952298;29;20452;-74
2021/06/05 14:28:23;;;;;;;10.53;10.23;;;27.80;94.20;;;;;;4952464;28;20437;-74
2021/06/05 14:30:52;;;;;;;11.27;10.97;;;27.70;94.10;;;;;;4952341;29;20495;-73
2021/06/05 14:33:19;;;;;;;11.63;11.33;;;27.00;95.50;;;;;;4952342;28;20822;-74
2021/06/05 14:35:47;;;;;;;11.27;10.90;;;26.40;97.60;;;;;;4952605;28;20807;-73
2021/06/05 14:38:16;;;;;;;12.60;11.53;;;25.60;99.90;;;;;;4952606;29;20449;-74
2021/06/05 14:40:44;;;;;;;11.93;11.53;;;25.20;99.90;;;;;;4952269;28;20441;-74
2021/06/05 14:43:11;;;;;;;11.80;11.40;;;24.80;99.90;;;;;;4952234;29;20457;-74
2021/06/05 14:45:41;;;;;;;11.60;11.20;;;24.50;99.90;;;;;;4952061;28;20453;-74
2021/06/05 14:48:09;;;;;;;12.07;11.50;;;24.30;99.90;;;;;;4951844;28;20472;-74
2021/06/05 14:50:36;;;;;;;10.90;10.30;;;23.90;99.90;;;;;;4951808;29;20999;-74
2021/06/05 14:53:02;;;;;;;10.70;10.40;;;23.60;99.90;;;;;;4951967;29;20449;-74
2021/06/05 14:55:30;;;;;;;10.30;10.00;;;23.30;99.90;;;;;;4951883;29;20449;-75
2021/06/05 14:57:58;;;;;;;10.40;10.00;;;23.30;99.90;;;;;;4951658;28;21002;-75
2021/06/05 15:00:26;;;;;;;10.87;10.57;;;23.30;99.90;;;;;;4949605;29;20501;-73
2021/06/05 15:02:52;;;;;;;12.47;11.87;;;23.10;99.90;;;;;;4951763;28;20711;-74
2021/06/05 15:05:22;;;;;;;11.87;11.47;;;22.60;99.90;;;;;;4951475;28;20441;-74
2021/06/05 15:07:48;;;;;;;12.40;11.80;;;22.10;99.90;;;;;;4951828;29;20515;-75
2021/06/05 15:10:15;;;;;;;12.17;11.60;;;21.80;99.90;;;;;;4952142;29;20485;-73
2021/06/05 15:12:41;;;;;;;11.43;11.03;;;21.70;99.90;;;;;;4951638;28;20789;-74
2021/06/05 15:15:10;;;;;;;10.83;10.53;;;21.50;99.90;;;;;;4951592;29;20543;-73
2021/06/05 15:17:36;;;;;;;10.27;9.97;;;21.40;99.90;;;;;;4951602;28;20572;-73
2021/06/05 15:20:04;;;;;;;10.47;10.17;;;21.30;99.90;;;;;;4951559;29;20487;-73
2021/06/05 15:22:31;;;;;;;11.70;11.27;;;21.10;99.90;;;;;;4952052;29;20448;-73
2021/06/05 15:24:57;;;;;;;11.17;10.87;;;21.00;99.90;;;;;;4952936;28;20459;-73
2021/06/05 15:27:23;;;;;;;11.53;11.13;;;21.00;99.90;;;;;;4952812;28;20460;-74
2021/06/05 15:29:49;;;;;;;13.47;12.90;;;21.10;99.90;;;;;;4952654;29;21076;-72
2021/06/05 15:32:17;;;;;;;15.90;15.30;;;21.10;99.90;;;;;;4952962;29;20461;-71
2021/06/05 15:34:43;;;;;;;22.30;21.50;;;21.00;99.90;;;;;;4952836;28;20448;-71
2021/06/05 15:37:09;;;;;;;29.80;28.10;;;20.80;99.90;;;;;;4952662;29;20935;-70
2021/06/05 15:39:36;;;;;;;28.03;26.93;;;20.60;99.90;;;;;;4952417;28;20464;-70
2021/06/05 15:42:02;;;;;;;26.60;25.60;;;20.30;99.90;;;;;;4952619;29;20452;-70
2021/06/05 15:44:28;;;;;;;27.30;26.30;;;20.00;99.90;;;;;;4952825;28;20471;-71
2021/06/05 15:46:55;;;;;;;27.63;26.53;;;19.70;99.90;;;;;;4952305;28;20457;-70
2021/06/05 15:49:23;;;;;;;28.50;27.40;;;19.40;99.90;;;;;;4952594;28;21017;-71
2021/06/05 15:51:49;;;;;;;28.30;27.20;;;19.40;99.90;;;;;;4952279;28;20492;-71
2021/06/05 15:54:22;;;;;;;29.23;28.13;;;19.10;99.90;;;;;;4952499;28;20516;-72
2021/06/05 15:56:49;;;;;;;29.93;28.70;;;19.10;99.90;;;;;;4952387;29;20523;-72
2021/06/05 15:59:15;;;;;;;30.67;29.37;;;19.00;99.90;;;;;;4952462;28;20581;-72
2021/06/05 16:01:43;;;;;;;31.70;30.40;;;19.00;99.90;;;;;;4952558;28;20456;-71
2021/06/05 16:04:14;;;;;;;31.90;30.50;;;19.00;99.90;;;;;;4952336;28;20524;-71
2021/06/05 16:06:42;;;;;;;33.00;31.60;;;18.80;99.90;;;;;;4952258;29;20459;-71
2021/06/05 16:09:10;;;;;;;33.70;32.20;;;18.90;99.90;;;;;;4952388;29;20463;-71
2021/06/05 16:11:36;;;;;;;32.57;30.97;;;18.80;99.90;;;;;;4952131;29;21171;-71
2021/06/05 16:14:04;;;;;;;33.60;32.10;;;18.90;99.90;;;;;;4950869;29;20444;-73
2021/06/05 16:16:31;;;;;;;33.93;32.33;;;18.90;99.90;;;;;;4950797;29;20456;-71
2021/06/05 16:18:57;;;;;;;33.17;31.67;;;19.10;99.90;;;;;;4950909;28;20481;-70
2021/06/05 16:21:26;;;;;;;33.80;32.30;;;19.10;99.90;;;;;;4950736;28;20439;-70
2021/06/05 16:23:54;;;;;;;34.20;32.60;;;19.20;99.90;;;;;;4950683;28;20548;-70
2021/06/05 16:26:22;;;;;;;31.73;30.37;;;19.40;99.90;;;;;;4953509;29;20457;-70
2021/06/05 16:28:48;;;;;;;29.10;27.80;;;19.50;99.90;;;;;;4954457;29;21222;-71
2021/06/05 16:31:16;;;;;;;27.57;26.47;;;19.40;99.90;;;;;;4954578;29;20484;-71
2021/06/05 16:33:42;;;;;;;26.60;25.50;;;19.60;99.90;;;;;;4954417;29;20947;-70
2021/06/05 16:36:09;;;;;;;24.60;23.60;;;19.70;99.90;;;;;;4954512;28;21054;-72
2021/06/05 16:38:36;;;;;;;23.30;22.50;;;19.80;99.90;;;;;;4954290;29;20444;-71
2021/06/05 16:41:05;;;;;;;22.63;21.73;;;19.80;99.90;;;;;;4954203;29;20432;-71